Time,TemperatureF,DewpointF,PressureIn,WindDirection,WindDirectionDegrees,WindSpeedMPH,WindSpeedGustMPH,Humidity,HourlyPrecipIn,Conditions,Clouds,dailyrainin,SolarRadiationWatts/m^2,SoftwareType,DateUTC
2013-02-19 00:00:00,38.7,31.5,30.23,ENE,77,0.0,0.0,75,0.00,,,0.00,0.0,meteohub,2013-02-19 05:00:00,
2013-02-19 00:01:00,38.7,31.5,30.23,ENE,77,0.0,0.0,75,0.00,,,0.00,0.0,meteohub,2013-02-19 05:01:00,
2013-02-19 00:06:00,38.5,31.6,30.23,ENE,76,0.0,0.0,76,0.00,,,0.00,0.0,meteohub,2013-02-19 05:06:00,
2013-02-19 00:11:00,38.3,31.5,30.23,ENE,76,0.0,0.0,76,0.00,,,0.00,0.0,meteohub,2013-02-19 05:11:00,
2013-02-19 00:16:00,38.3,31.5,30.22,ENE,77,0.0,0.0,76,0.00,,,0.00,0.0,meteohub,2013-02-19 05:16:00,
2013-02-19 00:21:00,38.5,31.6,30.22,ENE,76,0.0,1.0,76,0.00,,,0.00,0.0,meteohub,2013-02-19 05:21:00,
2013-02-19 00:26:00,38.5,31.8,30.23,ENE,77,0.0,1.0,77,0.00,,,0.00,0.0,meteohub,2013-02-19 05:26:00,
2013-02-19 00:31:00,38.5,31.8,30.22,ENE,76,0.0,0.0,77,0.00,,,0.00,0.0,meteohub,2013-02-19 05:31:00,
2013-02-19 00:36:00,38.5,31.8,30.22,ENE,77,0.0,0.0,77,0.00,,,0.00,0.0,meteohub,2013-02-19 05:36:00,
2013-02-19 00:41:00,38.3,31.6,30.22,ENE,76,0.0,0.0,77,0.00,,,0.00,0.0,meteohub,2013-02-19 05:41:00,
2013-02-19 00:46:00,38.1,31.6,30.22,ENE,77,0.0,0.0,77,0.00,,,0.00,0.0,meteohub,2013-02-19 05:46:00,
2013-02-19 00:51:00,38.3,32.0,30.22,ENE,77,0.0,0.0,78,0.00,,,0.00,0.0,meteohub,2013-02-19 05:51:00,
2013-02-19 00:56:00,38.3,32.0,30.22,ENE,77,0.0,0.0,78,0.00,,,0.00,0.0,meteohub,2013-02-19 05:56:00,
2013-02-19 01:01:00,38.1,31.8,30.22,ENE,77,0.0,0.0,78,0.00,,,0.00,0.0,meteohub,2013-02-19 06:01:00,
2013-02-19 01:06:00,37.9,31.6,30.22,ENE,76,0.0,0.0,78,0.00,,,0.00,0.0,meteohub,2013-02-19 06:06:00,
2013-02-19 01:11:00,37.9,31.6,30.22,ENE,77,0.0,0.0,78,0.00,,,0.00,0.0,meteohub,2013-02-19 06:11:00,
2013-02-19 01:16:00,37.9,31.6,30.22,ENE,76,0.0,0.0,78,0.00,,,0.00,0.0,meteohub,2013-02-19 06:16:00,
2013-02-19 01:21:00,37.9,32.0,30.22,ENE,76,0.0,0.0,79,0.00,,,0.00,0.0,meteohub,2013-02-19 06:21:00,
2013-02-19 01:27:00,37.8,31.8,30.21,ENE,77,0.0,0.0,79,0.00,,,0.00,0.0,meteohub,2013-02-19 06:27:00,
2013-02-19 01:32:00,37.8,31.8,30.21,ENE,77,0.0,0.0,79,0.00,,,0.00,0.0,meteohub,2013-02-19 06:32:00,
2013-02-19 01:37:00,37.6,31.6,30.20,ENE,76,0.0,0.0,79,0.00,,,0.00,0.0,meteohub,2013-02-19 06:37:00,
2013-02-19 01:42:00,37.6,31.6,30.20,ENE,77,0.0,0.0,79,0.00,,,0.00,0.0,meteohub,2013-02-19 06:42:00,
2013-02-19 01:47:00,37.4,31.5,30.20,ENE,77,0.0,0.0,79,0.00,,,0.00,0.0,meteohub,2013-02-19 06:47:00,
2013-02-19 01:52:00,37.8,32.2,30.20,ENE,76,0.0,0.0,80,0.00,,,0.00,0.0,meteohub,2013-02-19 06:52:00,
2013-02-19 01:57:00,38.1,32.5,30.19,ENE,77,0.0,1.0,80,0.00,,,0.00,0.0,meteohub,2013-02-19 06:57:00,
2013-02-19 02:02:00,38.3,32.7,30.19,ENE,77,0.0,1.0,80,0.00,,,0.00,0.0,meteohub,2013-02-19 07:02:00,
2013-02-19 02:07:00,38.5,32.9,30.18,ENE,77,0.0,0.0,80,0.00,,,0.00,0.0,meteohub,2013-02-19 07:07:00,
2013-02-19 02:12:00,38.5,32.9,30.18,ENE,77,0.0,0.0,80,0.00,,,0.00,0.0,meteohub,2013-02-19 07:12:00,
2013-02-19 02:17:00,38.5,33.1,30.17,ENE,76,0.0,0.0,81,0.00,,,0.00,0.0,meteohub,2013-02-19 07:17:00,
2013-02-19 02:22:00,38.7,33.3,30.17,ENE,77,0.0,0.0,81,0.00,,,0.00,0.0,meteohub,2013-02-19 07:22:00,
2013-02-19 02:27:00,38.7,33.3,30.17,ENE,77,0.0,0.0,81,0.00,,,0.00,0.0,meteohub,2013-02-19 07:27:00,
2013-02-19 02:32:00,38.7,33.3,30.17,ENE,76,0.0,0.0,81,0.00,,,0.00,0.0,meteohub,2013-02-19 07:32:00,
2013-02-19 02:37:00,38.7,33.3,30.17,ENE,77,0.0,0.0,81,0.00,,,0.00,0.0,meteohub,2013-02-19 07:37:00,
2013-02-19 02:42:00,38.7,33.3,30.17,ENE,77,0.0,0.0,81,0.00,,,0.00,0.0,meteohub,2013-02-19 07:42:00,
2013-02-19 02:47:00,38.8,33.4,30.17,ENE,77,0.0,0.0,81,0.00,,,0.00,0.0,meteohub,2013-02-19 07:47:00,
2013-02-19 02:52:00,38.8,33.4,30.17,ENE,76,0.0,0.0,81,0.00,,,0.00,0.0,meteohub,2013-02-19 07:52:00,
2013-02-19 02:57:00,38.8,33.8,30.17,ENE,77,0.0,0.0,82,0.00,,,0.00,0.0,meteohub,2013-02-19 07:57:00,
2013-02-19 03:02:00,39.0,34.0,30.16,ENE,77,0.0,0.0,82,0.00,,,0.00,0.0,meteohub,2013-02-19 08:02:00,
2013-02-19 03:07:00,39.2,34.2,30.16,ENE,76,0.0,0.0,82,0.00,,,0.00,0.0,meteohub,2013-02-19 08:07:00,
2013-02-19 03:12:00,39.4,34.3,30.15,ENE,77,0.0,0.0,82,0.00,,,0.00,0.0,meteohub,2013-02-19 08:12:00,
2013-02-19 03:17:00,39.4,34.3,30.15,ENE,77,0.0,0.0,82,0.00,,,0.00,0.0,meteohub,2013-02-19 08:17:00,
2013-02-19 03:22:00,39.2,34.2,30.15,ENE,77,0.0,0.0,82,0.00,,,0.00,0.0,meteohub,2013-02-19 08:22:00,
2013-02-19 03:27:00,39.0,34.0,30.15,ENE,76,0.0,0.0,82,0.00,,,0.00,0.0,meteohub,2013-02-19 08:27:00,
2013-02-19 03:32:00,39.0,34.0,30.14,ENE,76,0.0,0.0,82,0.00,,,0.00,0.0,meteohub,2013-02-19 08:32:00,
2013-02-19 03:37:00,39.2,34.5,30.14,ENE,77,0.0,0.0,83,0.00,,,0.00,0.0,meteohub,2013-02-19 08:37:00,
2013-02-19 03:42:00,39.4,34.7,30.15,ENE,77,0.0,0.0,83,0.00,,,0.00,0.0,meteohub,2013-02-19 08:42:00,
2013-02-19 03:47:00,39.6,34.9,30.14,ENE,76,0.0,0.0,83,0.00,,,0.00,0.0,meteohub,2013-02-19 08:47:00,
2013-02-19 03:52:00,39.6,34.9,30.14,ENE,77,0.0,0.0,83,0.00,,,0.00,0.0,meteohub,2013-02-19 08:52:00,
2013-02-19 03:57:00,39.6,34.9,30.14,ENE,77,0.0,0.0,83,0.00,,,0.00,0.0,meteohub,2013-02-19 08:57:00,
2013-02-19 04:02:00,39.6,34.9,30.14,ENE,77,0.0,0.0,83,0.00,,,0.00,0.0,meteohub,2013-02-19 09:02:00,
2013-02-19 04:07:00,39.7,35.1,30.13,ENE,77,0.0,0.0,83,0.00,,,0.00,0.0,meteohub,2013-02-19 09:07:00,
2013-02-19 04:12:00,39.7,35.1,30.13,ENE,77,0.0,0.0,83,0.00,,,0.00,0.0,meteohub,2013-02-19 09:12:00,
2013-02-19 04:17:00,39.9,35.4,30.13,ENE,76,0.0,0.0,84,0.00,,,0.00,0.0,meteohub,2013-02-19 09:17:00,
2013-02-19 04:22:00,39.9,35.4,30.14,ENE,76,0.0,0.0,84,0.00,,,0.00,0.0,meteohub,2013-02-19 09:22:00,
2013-02-19 04:27:00,40.1,35.6,30.13,ENE,77,0.0,0.0,84,0.00,,,0.00,0.0,meteohub,2013-02-19 09:27:00,
2013-02-19 04:32:00,40.3,35.8,30.14,ENE,77,0.0,0.0,84,0.00,,,0.00,0.0,meteohub,2013-02-19 09:32:00,
2013-02-19 04:37:00,40.3,35.8,30.14,ENE,77,0.0,0.0,84,0.00,,,0.00,0.0,meteohub,2013-02-19 09:37:00,
2013-02-19 04:42:00,40.5,36.0,30.13,ENE,76,0.0,0.0,84,0.00,,,0.00,0.0,meteohub,2013-02-19 09:42:00,
2013-02-19 04:47:00,40.5,36.0,30.14,ENE,77,0.0,0.0,84,0.00,,,0.00,0.0,meteohub,2013-02-19 09:47:00,
2013-02-19 04:52:00,40.6,36.1,30.13,ENE,77,0.0,0.0,84,0.00,,,0.00,0.0,meteohub,2013-02-19 09:52:00,
2013-02-19 04:57:00,40.6,36.1,30.14,ENE,77,0.0,0.0,84,0.00,,,0.00,0.0,meteohub,2013-02-19 09:57:00,
2013-02-19 05:02:00,41.2,37.0,30.13,ENE,76,0.0,0.0,85,0.00,,,0.00,0.0,meteohub,2013-02-19 10:02:00,
2013-02-19 05:07:00,41.7,37.6,30.13,ENE,77,0.0,0.0,85,0.00,,,0.00,0.0,meteohub,2013-02-19 10:07:00,
2013-02-19 05:12:00,42.1,37.9,30.13,ENE,77,0.0,0.0,85,0.00,,,0.00,0.0,meteohub,2013-02-19 10:12:00,
2013-02-19 05:17:00,42.6,38.5,30.13,ENE,76,0.0,1.0,85,0.00,,,0.00,0.0,meteohub,2013-02-19 10:17:00,
2013-02-19 05:22:00,43.7,39.6,30.13,ENE,77,0.0,1.0,85,0.00,,,0.00,0.0,meteohub,2013-02-19 10:22:00,
2013-02-19 05:27:00,44.4,40.3,30.13,ENE,77,0.0,1.0,85,0.00,,,0.00,0.0,meteohub,2013-02-19 10:27:00,
2013-02-19 05:32:00,45.9,41.5,30.13,South,191,0.0,1.0,85,0.00,,,0.00,0.0,meteohub,2013-02-19 10:32:00,
2013-02-19 05:37:00,47.5,43.2,30.13,South,178,0.0,5.0,85,0.00,,,0.00,0.0,meteohub,2013-02-19 10:37:00,
2013-02-19 05:42:00,48.6,44.6,30.13,SSE,168,2.0,5.0,86,0.00,,,0.00,0.0,meteohub,2013-02-19 10:42:00,
2013-02-19 05:47:00,49.6,45.7,30.12,SSE,157,0.0,5.0,86,0.00,,,0.00,0.0,meteohub,2013-02-19 10:47:00,
2013-02-19 05:52:00,50.4,46.4,30.12,SSW,203,0.0,7.0,86,0.00,,,0.00,0.0,meteohub,2013-02-19 10:52:00,
2013-02-19 05:57:00,50.7,46.8,30.12,South,188,0.0,7.0,86,0.00,,,0.00,0.0,meteohub,2013-02-19 10:57:00,
2013-02-19 06:02:00,51.1,46.8,30.12,SSE,168,1.0,7.0,85,0.00,,,0.00,0.0,meteohub,2013-02-19 11:02:00,
2013-02-19 06:07:00,51.4,47.1,30.12,SSE,162,0.0,5.0,85,0.00,,,0.00,0.0,meteohub,2013-02-19 11:07:00,
2013-02-19 06:12:00,51.6,47.3,30.12,SE,143,0.0,4.0,85,0.00,,,0.00,0.0,meteohub,2013-02-19 11:12:00,
2013-02-19 06:17:00,52.0,47.7,30.12,SSE,157,0.0,7.0,85,0.00,,,0.00,0.0,meteohub,2013-02-19 11:17:00,
2013-02-19 06:22:00,52.2,47.8,30.12,SW,222,0.0,7.0,85,0.00,,,0.00,0.0,meteohub,2013-02-19 11:22:00,
2013-02-19 06:27:00,52.3,47.7,30.12,SSW,200,5.0,7.0,84,0.00,,,0.00,0.0,meteohub,2013-02-19 11:27:00,
2013-02-19 06:32:00,52.5,47.8,30.13,SW,226,0.0,7.0,84,0.00,,,0.00,0.0,meteohub,2013-02-19 11:32:00,
2013-02-19 06:37:00,52.7,48.0,30.13,SSE,162,0.0,7.0,84,0.00,,,0.00,0.0,meteohub,2013-02-19 11:37:00,
2013-02-19 06:42:00,52.9,47.8,30.13,SSE,155,3.0,7.0,83,0.00,,,0.00,0.0,meteohub,2013-02-19 11:42:00,
2013-02-19 06:47:00,53.1,48.0,30.13,SSW,192,3.0,7.0,83,0.00,,,0.00,0.0,meteohub,2013-02-19 11:47:00,
2013-02-19 06:52:00,53.1,48.0,30.13,South,171,2.0,7.0,83,0.00,,,0.00,0.0,meteohub,2013-02-19 11:52:00,
2013-02-19 06:57:00,53.2,48.2,30.13,South,171,0.0,7.0,83,0.00,,,0.00,0.0,meteohub,2013-02-19 11:57:00,
2013-02-19 07:02:00,53.4,48.0,30.13,SSE,166,0.0,7.0,82,0.00,,,0.00,5.0,meteohub,2013-02-19 12:02:00,
2013-02-19 07:07:00,53.4,48.0,30.13,SSE,150,1.0,7.0,82,0.00,,,0.00,7.0,meteohub,2013-02-19 12:07:00,
2013-02-19 07:12:00,53.4,48.0,30.13,SSW,205,1.0,7.0,82,0.00,,,0.00,12.0,meteohub,2013-02-19 12:12:00,
2013-02-19 07:17:00,53.4,47.7,30.13,SSE,167,0.0,6.0,81,0.00,,,0.00,14.0,meteohub,2013-02-19 12:17:00,
2013-02-19 07:22:00,53.4,47.7,30.13,South,186,0.0,6.0,81,0.00,,,0.00,16.0,meteohub,2013-02-19 12:22:00,
2013-02-19 07:27:00,53.8,48.0,30.13,South,179,1.0,7.0,81,0.00,,,0.00,21.0,meteohub,2013-02-19 12:27:00,
2013-02-19 07:32:00,53.8,48.0,30.14,South,179,0.0,7.0,81,0.00,,,0.00,35.0,meteohub,2013-02-19 12:32:00,
2013-02-19 07:37:00,53.8,48.0,30.13,South,180,0.0,7.0,81,0.00,,,0.00,47.0,meteohub,2013-02-19 12:37:00,
2013-02-19 07:42:00,54.0,48.0,30.14,SSE,148,0.0,6.0,80,0.00,,,0.00,63.0,meteohub,2013-02-19 12:42:00,
2013-02-19 07:47:00,54.3,48.2,30.14,SSW,210,0.0,3.0,80,0.00,,,0.00,65.0,meteohub,2013-02-19 12:47:00,
2013-02-19 07:52:00,54.7,48.6,30.14,SSE,152,1.0,7.0,80,0.00,,,0.00,121.0,meteohub,2013-02-19 12:52:00,
2013-02-19 07:57:00,55.0,48.9,30.14,SW,217,7.0,7.0,80,0.00,,,0.00,162.0,meteohub,2013-02-19 12:57:00,
2013-02-19 08:02:00,55.6,49.1,30.14,South,171,2.0,8.0,79,0.00,,,0.00,216.0,meteohub,2013-02-19 13:02:00,
2013-02-19 08:07:00,56.3,49.8,30.14,SE,137,2.0,8.0,79,0.00,,,0.00,100.0,meteohub,2013-02-19 13:07:00,
2013-02-19 08:12:00,56.7,49.8,30.14,SSE,167,0.0,8.0,78,0.00,,,0.00,77.0,meteohub,2013-02-19 13:12:00,
2013-02-19 08:17:00,56.8,50.0,30.14,SSW,205,4.0,9.0,78,0.00,,,0.00,118.0,meteohub,2013-02-19 13:17:00,
2013-02-19 08:22:00,57.0,49.8,30.14,South,184,0.0,9.0,77,0.00,,,0.00,302.0,meteohub,2013-02-19 13:22:00,
2013-02-19 08:27:00,57.6,50.4,30.14,SSW,192,2.0,9.0,77,0.00,,,0.00,91.0,meteohub,2013-02-19 13:27:00,
2013-02-19 08:32:00,57.9,50.4,30.13,SW,230,6.0,10.0,76,0.00,,,0.00,346.0,meteohub,2013-02-19 13:32:00,
2013-02-19 08:37:00,58.5,50.9,30.14,SSE,155,2.0,19.0,76,0.00,,,0.00,79.0,meteohub,2013-02-19 13:37:00,
2013-02-19 08:42:00,58.6,51.1,30.14,WNW,287,3.0,19.0,76,0.00,,,0.00,91.0,meteohub,2013-02-19 13:42:00,
2013-02-19 08:47:00,59.0,51.1,30.13,SW,215,0.0,19.0,75,0.00,,,0.00,299.0,meteohub,2013-02-19 13:47:00,
2013-02-19 08:52:00,59.5,51.6,30.13,South,170,12.0,12.0,75,0.00,,,0.00,341.0,meteohub,2013-02-19 13:52:00,
2013-02-19 08:57:00,60.1,52.2,30.13,SSE,150,5.0,14.0,75,0.00,,,0.00,392.0,meteohub,2013-02-19 13:57:00,
2013-02-19 09:02:00,60.6,52.7,30.13,South,170,4.0,14.0,75,0.00,,,0.00,494.0,meteohub,2013-02-19 14:02:00,
2013-02-19 09:07:00,61.2,52.9,30.13,South,186,0.0,14.0,74,0.00,,,0.00,239.0,meteohub,2013-02-19 14:07:00,
2013-02-19 09:12:00,61.2,52.9,30.13,SSW,209,4.0,11.0,74,0.00,,,0.00,206.0,meteohub,2013-02-19 14:12:00,
2013-02-19 09:17:00,61.2,52.9,30.13,SSE,155,4.0,15.0,74,0.00,,,0.00,207.0,meteohub,2013-02-19 14:17:00,
2013-02-19 09:22:00,61.5,53.2,30.13,SSE,153,2.0,15.0,74,0.00,,,0.00,185.0,meteohub,2013-02-19 14:22:00,
2013-02-19 09:27:00,61.7,53.2,30.13,SSE,150,2.0,15.0,74,0.00,,,0.00,206.0,meteohub,2013-02-19 14:27:00,
2013-02-19 09:32:00,62.1,53.6,30.13,SSE,155,4.0,12.0,74,0.00,,,0.00,199.0,meteohub,2013-02-19 14:32:00,
2013-02-19 09:37:00,62.2,53.8,30.13,SSW,208,5.0,12.0,74,0.00,,,0.00,250.0,meteohub,2013-02-19 14:37:00,
2013-02-19 09:42:00,62.4,54.0,30.13,ESE,118,1.0,9.0,74,0.00,,,0.00,186.0,meteohub,2013-02-19 14:42:00,
2013-02-19 09:47:00,62.6,53.8,30.12,South,182,4.0,9.0,73,0.00,,,0.00,257.0,meteohub,2013-02-19 14:47:00,
2013-02-19 09:52:00,63.1,54.3,30.12,SSW,195,0.0,9.0,73,0.00,,,0.00,236.0,meteohub,2013-02-19 14:52:00,
2013-02-19 09:57:00,64.0,55.2,30.12,WSW,242,5.0,11.0,73,0.00,,,0.00,548.0,meteohub,2013-02-19 14:57:00,
2013-02-19 10:02:00,64.6,55.4,30.12,SSE,151,12.0,12.0,72,0.00,,,0.00,589.0,meteohub,2013-02-19 15:02:00,
2013-02-19 10:07:00,65.1,55.9,30.12,SSE,151,5.0,17.0,72,0.00,,,0.00,779.0,meteohub,2013-02-19 15:07:00,
2013-02-19 10:12:00,65.3,55.6,30.12,South,169,1.0,17.0,71,0.00,,,0.00,316.0,meteohub,2013-02-19 15:12:00,
2013-02-19 10:17:00,64.9,55.4,30.12,SSW,200,3.0,17.0,71,0.00,,,0.00,301.0,meteohub,2013-02-19 15:17:00,
2013-02-19 10:22:00,64.9,55.4,30.11,South,178,5.0,15.0,71,0.00,,,0.00,308.0,meteohub,2013-02-19 15:22:00,
2013-02-19 10:27:00,65.1,55.4,30.11,SE,144,7.0,15.0,71,0.00,,,0.00,417.0,meteohub,2013-02-19 15:27:00,
2013-02-19 10:32:00,65.5,55.4,30.11,SSW,206,6.0,16.0,70,0.00,,,0.00,533.0,meteohub,2013-02-19 15:32:00,
2013-02-19 10:37:00,65.8,55.8,30.11,SE,145,11.0,20.0,70,0.00,,,0.00,550.0,meteohub,2013-02-19 15:37:00,
2013-02-19 10:42:00,66.6,56.5,30.11,South,181,2.0,20.0,70,0.00,,,0.00,740.0,meteohub,2013-02-19 15:42:00,
2013-02-19 10:46:00,66.9,55.9,30.11,SSW,198,4.0,20.0,68,0.00,,,0.00,348.0,meteohub,2013-02-19 15:46:00,
2013-02-19 10:51:00,66.9,55.9,30.11,SSW,192,1.0,17.0,68,0.00,,,0.00,325.0,meteohub,2013-02-19 15:51:00,
2013-02-19 10:56:00,66.6,55.6,30.11,WSW,242,3.0,17.0,68,0.00,,,0.00,288.0,meteohub,2013-02-19 15:56:00,
2013-02-19 11:02:00,66.6,55.6,30.11,ESE,104,3.0,14.0,68,0.00,,,0.00,243.0,meteohub,2013-02-19 16:02:00,
2013-02-19 11:06:00,66.6,55.6,30.11,WSW,239,4.0,14.0,68,0.00,,,0.00,274.0,meteohub,2013-02-19 16:06:00,
2013-02-19 11:12:00,66.6,55.6,30.11,SW,227,3.0,12.0,68,0.00,,,0.00,279.0,meteohub,2013-02-19 16:12:00,
2013-02-19 11:17:00,66.7,55.4,30.10,SSE,160,1.0,11.0,67,0.00,,,0.00,408.0,meteohub,2013-02-19 16:17:00,
2013-02-19 11:22:00,67.6,56.3,30.10,South,173,8.0,15.0,67,0.00,,,0.00,563.0,meteohub,2013-02-19 16:22:00,
2013-02-19 11:27:00,68.5,56.7,30.10,SW,229,7.0,15.0,66,0.00,,,0.00,838.0,meteohub,2013-02-19 16:27:00,
2013-02-19 11:32:00,69.1,57.2,30.09,SSW,203,6.0,15.0,66,0.00,,,0.00,541.0,meteohub,2013-02-19 16:32:00,
2013-02-19 11:37:00,69.3,57.0,30.09,South,181,2.0,13.0,65,0.00,,,0.00,571.0,meteohub,2013-02-19 16:37:00,
2013-02-19 11:42:00,69.4,57.2,30.09,SSE,168,4.0,12.0,65,0.00,,,0.00,345.0,meteohub,2013-02-19 16:42:00,
2013-02-19 11:47:00,69.3,57.0,30.09,SW,218,2.0,10.0,65,0.00,,,0.00,380.0,meteohub,2013-02-19 16:47:00,
2013-02-19 11:52:00,69.1,56.8,30.09,South,169,9.0,9.0,65,0.00,,,0.00,387.0,meteohub,2013-02-19 16:52:00,
2013-02-19 11:57:00,68.9,56.3,30.08,SSE,166,3.0,12.0,64,0.00,,,0.00,229.0,meteohub,2013-02-19 16:57:00,
2013-02-19 12:02:00,68.9,56.7,30.08,SW,221,3.0,12.0,65,0.00,,,0.00,218.0,meteohub,2013-02-19 17:02:00,
2013-02-19 12:07:00,68.7,56.1,30.07,West,260,3.0,12.0,64,0.00,,,0.00,237.0,meteohub,2013-02-19 17:07:00,
2013-02-19 12:12:00,68.5,55.9,30.07,SSW,207,1.0,15.0,64,0.00,,,0.00,229.0,meteohub,2013-02-19 17:12:00,
2013-02-19 12:17:00,68.7,56.1,30.07,SSW,192,5.0,15.0,64,0.00,,,0.00,290.0,meteohub,2013-02-19 17:17:00,
2013-02-19 12:22:00,68.7,56.1,30.08,SSW,203,0.0,15.0,64,0.00,,,0.00,285.0,meteohub,2013-02-19 17:22:00,
2013-02-19 12:27:00,68.9,56.3,30.07,South,184,5.0,12.0,64,0.00,,,0.00,262.0,meteohub,2013-02-19 17:27:00,
2013-02-19 12:32:00,69.3,56.1,30.07,SW,225,4.0,12.0,63,0.00,,,0.00,211.0,meteohub,2013-02-19 17:32:00,
2013-02-19 12:37:00,69.3,56.1,30.07,South,171,1.0,11.0,63,0.00,,,0.00,325.0,meteohub,2013-02-19 17:37:00,
2013-02-19 12:42:00,69.6,56.5,30.06,WSW,240,2.0,10.0,63,0.00,,,0.00,292.0,meteohub,2013-02-19 17:42:00,
2013-02-19 12:47:00,69.6,56.5,30.06,WSW,238,1.0,10.0,63,0.00,,,0.00,260.0,meteohub,2013-02-19 17:47:00,
2013-02-19 12:52:00,69.6,55.9,30.05,South,191,4.0,10.0,62,0.00,,,0.00,199.0,meteohub,2013-02-19 17:52:00,
2013-02-19 12:57:00,69.6,56.5,30.05,SSW,200,1.0,9.0,63,0.00,,,0.00,230.0,meteohub,2013-02-19 17:57:00,
2013-02-19 13:02:00,69.8,56.7,30.05,SSW,205,1.0,9.0,63,0.00,,,0.00,257.0,meteohub,2013-02-19 18:02:00,
2013-02-19 13:07:00,70.0,56.3,30.04,South,183,1.0,9.0,62,0.00,,,0.00,322.0,meteohub,2013-02-19 18:07:00,
2013-02-19 13:12:00,70.3,56.7,30.04,SW,231,1.0,10.0,62,0.00,,,0.00,605.0,meteohub,2013-02-19 18:12:00,
2013-02-19 13:17:00,71.1,57.4,30.04,SW,227,2.0,10.0,62,0.00,,,0.00,366.0,meteohub,2013-02-19 18:17:00,
2013-02-19 13:22:00,71.4,57.2,30.03,SW,223,4.0,10.0,61,0.00,,,0.00,578.0,meteohub,2013-02-19 18:22:00,
2013-02-19 13:27:00,71.8,57.6,30.03,South,175,0.0,14.0,61,0.00,,,0.00,271.0,meteohub,2013-02-19 18:27:00,
2013-02-19 13:32:00,71.6,57.4,30.02,SSW,205,2.0,14.0,61,0.00,,,0.00,176.0,meteohub,2013-02-19 18:32:00,
2013-02-19 13:37:00,71.2,57.0,30.02,SW,236,9.0,14.0,61,0.00,,,0.00,260.0,meteohub,2013-02-19 18:37:00,
2013-02-19 13:42:00,70.5,56.8,30.02,South,178,2.0,10.0,62,0.00,,,0.00,295.0,meteohub,2013-02-19 18:42:00,
2013-02-19 13:47:00,70.2,56.5,30.02,WSW,244,0.0,10.0,62,0.00,,,0.00,283.0,meteohub,2013-02-19 18:47:00,
2013-02-19 13:52:00,70.2,57.0,30.02,SW,230,0.0,10.0,63,0.00,,,0.00,236.0,meteohub,2013-02-19 18:52:00,
2013-02-19 13:57:00,70.2,57.0,30.01,SW,234,0.0,9.0,63,0.00,,,0.00,220.0,meteohub,2013-02-19 18:57:00,
2013-02-19 14:02:00,69.8,56.7,30.01,South,188,2.0,7.0,63,0.00,,,0.00,113.0,meteohub,2013-02-19 19:02:00,
2013-02-19 14:07:00,69.3,56.5,30.01,SW,224,0.0,7.0,64,0.00,,,0.00,128.0,meteohub,2013-02-19 19:07:00,
2013-02-19 14:12:00,69.1,56.5,30.01,SW,225,0.0,7.0,64,0.00,,,0.00,142.0,meteohub,2013-02-19 19:12:00,
2013-02-19 14:17:00,68.7,56.5,30.01,WSW,240,1.0,5.0,65,0.00,,,0.00,98.0,meteohub,2013-02-19 19:17:00,
2013-02-19 14:22:00,68.4,56.1,30.00,South,173,0.0,5.0,65,0.00,,,0.00,81.0,meteohub,2013-02-19 19:22:00,
2013-02-19 14:27:00,68.0,56.3,30.00,WSW,255,0.0,5.0,66,0.00,,,0.00,69.0,meteohub,2013-02-19 19:27:00,
2013-02-19 14:32:00,67.6,55.9,30.00,WSW,253,0.0,5.0,66,0.00,,,0.00,63.0,meteohub,2013-02-19 19:32:00,
2013-02-19 14:37:00,67.5,55.8,30.00,South,176,0.0,5.0,66,0.00,,,0.00,62.0,meteohub,2013-02-19 19:37:00,
2013-02-19 14:42:00,67.3,55.9,30.00,SSW,209,0.0,3.0,67,0.00,,,0.00,81.0,meteohub,2013-02-19 19:42:00,
2013-02-19 14:47:00,66.9,55.9,29.99,SSW,209,0.0,4.0,68,0.01,,,0.01,79.0,meteohub,2013-02-19 19:47:00,
2013-02-19 14:52:00,66.9,55.9,29.99,SSW,209,0.0,4.0,68,0.01,,,0.01,90.0,meteohub,2013-02-19 19:52:00,
2013-02-19 14:57:00,66.7,55.8,29.99,South,176,2.0,2.0,68,0.01,,,0.01,105.0,meteohub,2013-02-19 19:57:00,
2013-02-19 15:02:00,66.6,56.1,29.99,South,177,0.0,2.0,69,0.01,,,0.01,97.0,meteohub,2013-02-19 20:02:00,
2013-02-19 15:07:00,66.4,56.3,29.99,South,177,1.0,2.0,70,0.01,,,0.01,104.0,meteohub,2013-02-19 20:07:00,
2013-02-19 15:12:00,66.4,56.3,29.99,South,178,0.0,2.0,70,0.01,,,0.01,123.0,meteohub,2013-02-19 20:12:00,
2013-02-19 15:17:00,66.2,56.1,29.99,South,178,0.0,2.0,70,0.01,,,0.01,70.0,meteohub,2013-02-19 20:17:00,
2013-02-19 15:22:00,66.0,55.9,29.99,South,178,0.0,2.0,70,0.01,,,0.01,51.0,meteohub,2013-02-19 20:22:00,
2013-02-19 15:27:00,65.8,56.1,29.99,SW,221,0.0,1.0,71,0.01,,,0.01,84.0,meteohub,2013-02-19 20:27:00,
2013-02-19 15:32:00,65.7,56.3,29.99,NNE,32,1.0,1.0,72,0.02,,,0.02,118.0,meteohub,2013-02-19 20:32:00,
2013-02-19 15:37:00,65.5,56.3,29.98,NNE,32,0.0,2.0,72,0.02,,,0.02,95.0,meteohub,2013-02-19 20:37:00,
2013-02-19 15:42:00,65.1,56.3,29.98,NE,34,0.0,2.0,73,0.02,,,0.02,139.0,meteohub,2013-02-19 20:42:00,
2013-02-19 15:47:00,65.1,56.7,29.98,NE,36,0.0,2.0,74,0.01,,,0.02,163.0,meteohub,2013-02-19 20:47:00,
2013-02-19 15:52:00,65.1,56.7,29.97,SSE,150,1.0,3.0,74,0.01,,,0.02,202.0,meteohub,2013-02-19 20:52:00,
2013-02-19 15:57:00,65.3,56.8,29.97,SSE,150,0.0,3.0,74,0.01,,,0.02,141.0,meteohub,2013-02-19 20:57:00,
2013-02-19 16:02:00,65.5,57.0,29.97,SSE,163,1.0,4.0,74,0.01,,,0.02,156.0,meteohub,2013-02-19 21:02:00,
2013-02-19 16:07:00,65.7,57.2,29.98,South,175,0.0,5.0,74,0.01,,,0.02,127.0,meteohub,2013-02-19 21:07:00,
2013-02-19 16:12:00,66.0,57.6,29.98,SSE,168,1.0,5.0,74,0.01,,,0.02,109.0,meteohub,2013-02-19 21:12:00,
2013-02-19 16:17:00,66.0,57.6,29.97,South,169,2.0,4.0,74,0.01,,,0.02,74.0,meteohub,2013-02-19 21:17:00,
2013-02-19 16:22:00,66.4,57.4,29.98,SSW,205,0.0,5.0,73,0.01,,,0.02,79.0,meteohub,2013-02-19 21:22:00,
2013-02-19 16:27:00,66.6,57.6,29.97,SW,225,1.0,6.0,73,0.01,,,0.02,42.0,meteohub,2013-02-19 21:27:00,
2013-02-19 16:32:00,66.6,57.6,29.98,SW,218,0.0,6.0,73,0.00,,,0.02,54.0,meteohub,2013-02-19 21:32:00,
2013-02-19 16:37:00,66.7,57.7,29.98,SW,228,2.0,7.0,73,0.00,,,0.02,86.0,meteohub,2013-02-19 21:37:00,
2013-02-19 16:42:00,67.1,58.1,29.98,SSW,194,2.0,8.0,73,0.00,,,0.02,72.0,meteohub,2013-02-19 21:42:00,
2013-02-19 16:47:00,67.3,58.3,29.98,SSW,195,3.0,8.0,73,0.00,,,0.02,77.0,meteohub,2013-02-19 21:47:00,
2013-02-19 16:52:00,67.5,58.5,29.99,South,182,1.0,8.0,73,0.00,,,0.02,93.0,meteohub,2013-02-19 21:52:00,
2013-02-19 16:57:00,67.5,58.5,29.99,SSW,196,2.0,7.0,73,0.00,,,0.02,54.0,meteohub,2013-02-19 21:57:00,
2013-02-19 17:02:00,67.5,58.5,29.99,WSW,251,1.0,9.0,73,0.00,,,0.02,77.0,meteohub,2013-02-19 22:02:00,
2013-02-19 17:07:00,67.3,58.6,29.99,WSW,241,0.0,9.0,74,0.00,,,0.02,76.0,meteohub,2013-02-19 22:07:00,
2013-02-19 17:12:00,67.3,58.6,29.98,WSW,240,3.0,9.0,74,0.00,,,0.02,51.0,meteohub,2013-02-19 22:12:00,
2013-02-19 17:17:00,67.1,58.5,29.99,WSW,237,0.0,5.0,74,0.00,,,0.02,39.0,meteohub,2013-02-19 22:17:00,
2013-02-19 17:22:00,66.9,58.3,29.99,SSW,199,0.0,5.0,74,0.00,,,0.02,21.0,meteohub,2013-02-19 22:22:00,
2013-02-19 17:27:00,66.7,58.1,29.99,WSW,253,0.0,5.0,74,0.00,,,0.02,16.0,meteohub,2013-02-19 22:27:00,
2013-02-19 17:32:00,66.7,58.6,29.99,WSW,254,0.0,4.0,75,0.00,,,0.02,19.0,meteohub,2013-02-19 22:32:00,
2013-02-19 17:37:00,66.6,58.5,29.99,West,279,2.0,4.0,75,0.00,,,0.02,11.0,meteohub,2013-02-19 22:37:00,
2013-02-19 17:42:00,66.4,58.3,30.01,West,280,0.0,4.0,75,0.00,,,0.02,5.0,meteohub,2013-02-19 22:42:00,
2013-02-19 17:47:00,66.0,58.3,30.01,NW,314,4.0,5.0,76,0.00,,,0.02,7.0,meteohub,2013-02-19 22:47:00,
2013-02-19 17:52:00,65.3,57.9,30.01,NW,307,5.0,7.0,77,0.01,,,0.03,12.0,meteohub,2013-02-19 22:52:00,
2013-02-19 17:57:00,64.6,57.6,30.01,WNW,282,4.0,7.0,78,0.01,,,0.03,12.0,meteohub,2013-02-19 22:57:00,
2013-02-19 18:02:00,64.0,57.0,30.01,WNW,288,1.0,7.0,78,0.01,,,0.03,5.0,meteohub,2013-02-19 23:02:00,
2013-02-19 18:07:00,63.7,57.0,30.02,WNW,286,4.0,8.0,79,0.01,,,0.03,0.0,meteohub,2013-02-19 23:07:00,
2013-02-19 18:12:00,63.1,56.8,30.02,WNW,286,1.0,8.0,80,0.01,,,0.03,0.0,meteohub,2013-02-19 23:12:00,
2013-02-19 18:17:00,62.8,56.5,30.02,West,279,2.0,8.0,80,0.01,,,0.03,0.0,meteohub,2013-02-19 23:17:00,
2013-02-19 18:22:00,62.2,56.3,30.02,NW,307,1.0,8.0,81,0.01,,,0.03,0.0,meteohub,2013-02-19 23:22:00,
2013-02-19 18:27:00,61.5,55.6,30.03,WNW,289,1.0,9.0,81,0.01,,,0.03,0.0,meteohub,2013-02-19 23:27:00,
2013-02-19 18:32:00,61.2,55.2,30.03,NW,321,0.0,9.0,81,0.01,,,0.03,0.0,meteohub,2013-02-19 23:32:00,
2013-02-19 18:37:00,61.0,55.4,30.03,NW,304,0.0,9.0,82,0.01,,,0.03,0.0,meteohub,2013-02-19 23:37:00,
2013-02-19 18:42:00,60.6,55.0,30.03,West,279,0.0,6.0,82,0.02,,,0.04,0.0,meteohub,2013-02-19 23:42:00,
2013-02-19 18:47:00,60.4,54.9,30.04,NW,310,1.0,6.0,82,0.02,,,0.04,0.0,meteohub,2013-02-19 23:47:00,
2013-02-19 18:52:00,60.3,55.0,30.04,West,276,0.0,5.0,83,0.01,,,0.04,0.0,meteohub,2013-02-19 23:52:00,
2013-02-19 18:56:00,60.3,55.0,30.03,WSW,252,0.0,5.0,83,0.01,,,0.04,0.0,meteohub,2013-02-19 23:56:00,
2013-02-19 19:01:00,60.1,54.9,30.03,WSW,252,0.0,6.0,83,0.01,,,0.04,0.0,meteohub,2013-02-20 00:01:00,
2013-02-19 19:06:00,59.9,54.7,30.03,West,276,0.0,6.0,83,0.01,,,0.04,0.0,meteohub,2013-02-20 00:06:00,
2013-02-19 19:12:00,59.7,54.9,30.04,West,276,0.0,4.0,84,0.01,,,0.04,0.0,meteohub,2013-02-20 00:12:00,
2013-02-19 19:17:00,59.7,54.9,30.04,West,276,0.0,3.0,84,0.01,,,0.04,0.0,meteohub,2013-02-20 00:17:00,
2013-02-19 19:22:00,59.5,54.7,30.04,WNW,295,2.0,3.0,84,0.01,,,0.04,0.0,meteohub,2013-02-20 00:22:00,
2013-02-19 19:27:00,59.5,54.7,30.04,WNW,290,0.0,6.0,84,0.01,,,0.04,0.0,meteohub,2013-02-20 00:27:00,
2013-02-19 19:32:00,59.4,54.9,30.05,WNW,288,0.0,6.0,85,0.01,,,0.04,0.0,meteohub,2013-02-20 00:32:00,
2013-02-19 19:37:00,59.4,54.9,30.05,WNW,292,3.0,8.0,85,0.02,,,0.05,0.0,meteohub,2013-02-20 00:37:00,
2013-02-19 19:42:00,59.2,54.7,30.05,West,274,0.0,8.0,85,0.02,,,0.06,0.0,meteohub,2013-02-20 00:42:00,
2013-02-19 19:47:00,59.0,54.5,30.06,West,274,1.0,8.0,85,0.02,,,0.06,0.0,meteohub,2013-02-20 00:47:00,
2013-02-19 19:52:00,59.0,54.5,30.06,SW,233,3.0,5.0,85,0.03,,,0.07,0.0,meteohub,2013-02-20 00:52:00,
2013-02-19 19:57:00,59.0,54.9,30.06,West,281,0.0,4.0,86,0.03,,,0.07,0.0,meteohub,2013-02-20 00:57:00,
2013-02-19 20:02:00,59.0,54.9,30.06,WNW,284,1.0,4.0,86,0.03,,,0.07,0.0,meteohub,2013-02-20 01:02:00,
2013-02-19 20:07:00,59.0,54.9,30.06,WNW,282,3.0,5.0,86,0.03,,,0.07,0.0,meteohub,2013-02-20 01:07:00,
2013-02-19 20:12:00,58.8,54.7,30.06,West,281,1.0,5.0,86,0.03,,,0.07,0.0,meteohub,2013-02-20 01:12:00,
2013-02-19 20:17:00,58.6,54.5,30.06,West,268,1.0,4.0,86,0.03,,,0.07,0.0,meteohub,2013-02-20 01:17:00,
2013-02-19 20:22:00,58.5,54.7,30.06,WSW,238,0.0,5.0,87,0.03,,,0.07,0.0,meteohub,2013-02-20 01:22:00,
2013-02-19 20:27:00,58.1,54.3,30.06,West,279,2.0,5.0,87,0.03,,,0.07,0.0,meteohub,2013-02-20 01:27:00,
2013-02-19 20:32:00,57.9,54.1,30.06,WNW,284,0.0,6.0,87,0.03,,,0.07,0.0,meteohub,2013-02-20 01:32:00,
2013-02-19 20:37:00,57.6,53.8,30.06,WNW,287,0.0,6.0,87,0.02,,,0.07,0.0,meteohub,2013-02-20 01:37:00,
2013-02-19 20:42:00,57.6,53.8,30.06,WNW,288,3.0,6.0,87,0.01,,,0.07,0.0,meteohub,2013-02-20 01:42:00,
2013-02-19 20:47:00,57.2,53.4,30.06,WNW,287,1.0,4.0,87,0.01,,,0.07,0.0,meteohub,2013-02-20 01:47:00,
2013-02-19 20:52:00,57.0,53.2,30.06,West,268,0.0,4.0,87,0.00,,,0.07,0.0,meteohub,2013-02-20 01:52:00,
2013-02-19 20:57:00,56.8,53.1,30.06,WNW,284,0.0,3.0,87,0.00,,,0.07,0.0,meteohub,2013-02-20 01:57:00,
2013-02-19 21:02:00,56.7,52.9,30.06,West,277,4.0,4.0,87,0.00,,,0.07,0.0,meteohub,2013-02-20 02:02:00,
2013-02-19 21:07:00,56.5,52.7,30.06,West,277,0.0,4.0,87,0.00,,,0.07,0.0,meteohub,2013-02-20 02:07:00,
2013-02-19 21:12:00,56.1,52.3,30.06,West,277,0.0,4.0,87,0.00,,,0.07,0.0,meteohub,2013-02-20 02:12:00,
2013-02-19 21:17:00,55.9,52.2,30.06,West,277,0.0,4.0,87,0.00,,,0.07,0.0,meteohub,2013-02-20 02:17:00,
2013-02-19 21:21:00,55.8,52.3,30.06,West,277,0.0,1.0,88,0.00,,,0.07,0.0,meteohub,2013-02-20 02:21:00,
2013-02-19 21:27:00,55.6,51.8,30.07,West,277,0.0,0.0,87,0.00,,,0.07,0.0,meteohub,2013-02-20 02:27:00,
2013-02-19 21:32:00,55.2,51.4,30.07,West,277,0.0,1.0,87,0.00,,,0.07,0.0,meteohub,2013-02-20 02:32:00,
2013-02-19 21:37:00,55.0,51.6,30.07,West,277,0.0,1.0,88,0.00,,,0.07,0.0,meteohub,2013-02-20 02:37:00,
2013-02-19 21:42:00,54.9,51.4,30.07,West,277,0.0,1.0,88,0.00,,,0.07,0.0,meteohub,2013-02-20 02:42:00,
2013-02-19 21:47:00,54.7,51.3,30.07,West,277,0.0,0.0,88,0.00,,,0.07,0.0,meteohub,2013-02-20 02:47:00,
2013-02-19 21:52:00,54.5,51.1,30.07,West,277,0.0,0.0,88,0.00,,,0.07,0.0,meteohub,2013-02-20 02:52:00,
2013-02-19 21:57:00,54.1,50.7,30.07,West,277,0.0,0.0,88,0.00,,,0.07,0.0,meteohub,2013-02-20 02:57:00,
2013-02-19 22:02:00,54.0,50.5,30.07,West,277,0.0,0.0,88,0.00,,,0.07,0.0,meteohub,2013-02-20 03:02:00,
2013-02-19 22:07:00,53.8,50.4,30.07,West,277,0.0,0.0,88,0.00,,,0.07,0.0,meteohub,2013-02-20 03:07:00,
2013-02-19 22:12:00,53.2,49.8,30.07,West,277,0.0,0.0,88,0.00,,,0.07,0.0,meteohub,2013-02-20 03:12:00,
2013-02-19 22:17:00,53.1,49.6,30.07,West,277,0.0,0.0,88,0.00,,,0.07,0.0,meteohub,2013-02-20 03:17:00,
2013-02-19 22:22:00,52.5,49.1,30.07,West,277,0.0,0.0,88,0.00,,,0.07,0.0,meteohub,2013-02-20 03:22:00,
2013-02-19 22:27:00,52.3,48.9,30.07,West,277,0.0,0.0,88,0.00,,,0.07,0.0,meteohub,2013-02-20 03:27:00,
2013-02-19 22:32:00,52.0,48.6,30.07,West,277,0.0,0.0,88,0.00,,,0.07,0.0,meteohub,2013-02-20 03:32:00,
2013-02-19 22:37:00,51.6,48.2,30.07,West,277,0.0,0.0,88,0.00,,,0.07,0.0,meteohub,2013-02-20 03:37:00,
2013-02-19 22:42:00,51.3,47.8,30.07,West,277,0.0,0.0,88,0.00,,,0.07,0.0,meteohub,2013-02-20 03:42:00,
2013-02-19 22:47:00,51.1,47.7,30.07,West,277,0.0,0.0,88,0.00,,,0.07,0.0,meteohub,2013-02-20 03:47:00,
2013-02-19 22:52:00,50.9,47.5,30.07,West,277,0.0,0.0,88,0.00,,,0.07,0.0,meteohub,2013-02-20 03:52:00,
2013-02-19 22:57:00,50.9,47.5,30.07,West,277,0.0,0.0,88,0.00,,,0.07,0.0,meteohub,2013-02-20 03:57:00,
2013-02-19 23:02:00,51.1,47.7,30.07,West,277,0.0,0.0,88,0.00,,,0.07,0.0,meteohub,2013-02-20 04:02:00,
2013-02-19 23:07:00,50.7,47.7,30.08,West,277,0.0,0.0,89,0.00,,,0.07,0.0,meteohub,2013-02-20 04:07:00,
2013-02-19 23:12:00,50.5,47.5,30.07,West,277,0.0,0.0,89,0.00,,,0.07,0.0,meteohub,2013-02-20 04:12:00,
2013-02-19 23:17:00,50.4,47.3,30.08,West,277,0.0,0.0,89,0.00,,,0.07,0.0,meteohub,2013-02-20 04:17:00,
2013-02-19 23:22:00,50.0,46.9,30.08,West,277,0.0,0.0,89,0.00,,,0.07,0.0,meteohub,2013-02-20 04:22:00,
2013-02-19 23:27:00,49.6,46.6,30.08,West,277,0.0,0.0,89,0.00,,,0.07,0.0,meteohub,2013-02-20 04:27:00,
2013-02-19 23:32:00,49.5,46.4,30.08,West,277,0.0,0.0,89,0.00,,,0.07,0.0,meteohub,2013-02-20 04:32:00,
2013-02-19 23:37:00,49.5,46.4,30.08,West,277,0.0,0.0,89,0.00,,,0.07,0.0,meteohub,2013-02-20 04:37:00,
2013-02-19 23:42:00,49.3,46.2,30.08,West,277,0.0,0.0,89,0.00,,,0.07,0.0,meteohub,2013-02-20 04:42:00,
2013-02-19 23:47:00,49.3,46.2,30.08,West,277,0.0,0.0,89,0.00,,,0.07,0.0,meteohub,2013-02-20 04:47:00,
2013-02-19 23:52:00,49.6,46.6,30.08,West,277,0.0,0.0,89,0.00,,,0.07,0.0,meteohub,2013-02-20 04:52:00,
2013-02-19 23:57:00,49.8,46.8,30.08,West,277,0.0,0.0,89,0.00,,,0.07,0.0,meteohub,2013-02-20 04:57:00,